Meteo Giornale » Osservazioni meteo Stati Uniti (USA) » Corpus Christi
ore: 18:51 - Osservazioni Meteo Corpus Christi
Lat. 27° 46' N Lon. 97° 30' W Alt. 13 metri s.l.m.
32 °C
Poco Nuvoloso
Temp. 24 Ore
26 °C
37 °C
Est/Sud-Est
33.3 Km/h
Dew point 23 °C
Umidità 59 %
Visibilità 10 Km
Il sole sorge alle ore 07:08
Il sole tramonta alle ore 19:52
| Data e Ora | Cielo e Fenomeni | T °C | DP °C | Um. % | Pres. hPa | Vis. km | Vento km/h | |
|---|---|---|---|---|---|---|---|---|
| Oggi h: 18:51 | Poco Nuvoloso | 32 | 23 | 59 | 1012 | 10 | E/SE 33.3 | |
| Oggi h: 17:51 | Poco Nuvoloso | 34 | 22 | 49 | 1012 | 10 | E/SE 31.5 | |
| Oggi h: 16:51 | Poco Nuvoloso | 35 | 22 | 47 | 1012 | 10 | E/SE 31.5 | |
| Oggi h: 15:51 | Poco Nuvoloso | 37 | 22 | 42 | 1013 | 10 | SE 27.8 | |
| Oggi h: 14:51 | Poco Nuvoloso | 37 | 21 | 39 | 1014 | 10 | E/SE 20.3 | |
| Oggi h: 13:51 | Poco Nuvoloso | 37 | 22 | 42 | 1014 | 10 | E/SE 25.9 | |
| Oggi h: 12:51 | Nuvoloso | 36 | 23 | 47 | 1015 | 10 | SE 27.8 | |
| Oggi h: 11:51 | Molto Nuvoloso | 33 | 23 | 55 | 1015 | 10 | S 11.1 | |
| Oggi h: 10:51 | Nuvoloso | 34 | 24 | 56 | 1015 | 10 | SE 13 | |
| Oggi h: 09:51 | Nuvoloso | 32 | 24 | 62 | 1015 | 10 | S 13 | |
| Oggi h: 08:51 | Poco Nuvoloso | 29 | 26 | 83 | 1015 | 10 | S/SE 11.1 | |
| Oggi h: 07:51 | Poco Nuvoloso | 27 | 25 | 88 | 1014 | 10 | SE 7.4 | |
| Oggi h: 06:51 | Poco Nuvoloso | 26 | 24 | 88 | 1014 | 10 | S/SE 7.4 | |
| Oggi h: 05:51 | Poco Nuvoloso | 27 | 25 | 88 | 1013 | 10 | S/SE 9.3 | |
| Oggi h: 04:51 | Poco Nuvoloso | 27 | 24 | 83 | 1014 | 10 | S/SE 9.3 | |
| Oggi h: 03:51 | Poco Nuvoloso | 27 | 25 | 88 | 1014 | 10 | S/SE 11.1 | |
| Oggi h: 02:51 | Poco Nuvoloso | 28 | 25 | 83 | 1014 | 10 | S/SE 13 | |
| Oggi h: 01:51 | Poco Nuvoloso | 28 | 25 | 83 | 1014 | 10 | S/SE 13 | |
| Oggi h: 00:51 | Poco Nuvoloso | 28 | 25 | 83 | 1014 | 10 | S/SE 13 | |
| Ieri h: 23:51 | Poco Nuvoloso | 29 | 25 | 79 | 1014 | 10 | SE 13 | |
| Ieri h: 22:51 | Poco Nuvoloso | 29 | 25 | 79 | 1014 | 10 | S/SE 18.5 | |
| Ieri h: 21:51 | Poco Nuvoloso | 30 | 24 | 70 | 1014 | 10 | SE 24 | |
| Ieri h: 20:51 | Poco Nuvoloso | 30 | 24 | 70 | 1013 | 10 | SE 25.9 | |
| Ieri h: 19:51 | Poco Nuvoloso | 31 | 24 | 66 | 1012 | 10 | SE 27.8 | |



